ENZV/SVG METAR and TAF weather

Enter ICAO airport designator
Station Type Date Time Source
ENZV METAR 2021/10/22 18:20 UTC NOAA

ENZV 221820Z 33017KT 9999 FEW029CB BKN064 08/03 Q1008 TEMPO 34025G35KT 4000 SHRAGS BKN014CB


Station Type Date Time Source
ENZV Decoded METAR 2021/10/22 18:20 UTC NOAA

Stavanger / Sola, Norway (ENZV) 58-53N 005-38E 9M
Oct 22, 2021 - 02:20 PM EDT / 2021.10.22 1820 UTC
Wind: from the NNW (330 degrees) at 20 MPH (17 KT):0
Visibility: greater than 7 mile(s):0
Sky conditions: mostly cloudy
Weather: Cumulonimbus clouds observed
Temperature: 46 F (8 C)
Dew Point: 37 F (3 C)
Relative Humidity: 70%
Pressure (altimeter): 29.77 in. Hg (1008 hPa)
ob: ENZV 221820Z 33017KT 9999 FEW029CB BKN064 08/03 Q1008 TEMPO 34025G35KT 4000 SHRAGS BKN014CB
cycle: 18

Station Type Date Time Source
ENZV TAF 2021/10/22 18:57 UTC NOAA

TAF ENZV 221700Z 2218/2318 34022KT 9999 -SHRA FEW020TCU BKN040
TEMPO 2218/2220 34025G38KT 4000 SHRAGS BKN014CB
TEMPO 2220/2224 SHRA SCT015CB
BECMG 2300/2303 34012KT
BECMG 2305/2307 VRB05KT
BECMG 2314/2316 16015KT

Example: see airport list